Terminal Aerodrome Forecast
Issued by NWS

Home | Current Version | Previous Version | Text Only | Print | Product List | Glossary On
Versions: 1 2 3 4 5 6 7 8 9 10 11 12 13 14 15
676
FTUS43 KIND 221720
TAFLAF
TAF
KLAF 221720Z 2218/2318 18015G25KT P6SM BKN070
     FM222000 18010G25KT P6SM VCSH BKN070
     FM222200 18009KT P6SM -SHRA OVC045
     FM230000 23007KT 5SM SHRA BR OVC025
     FM230200 31006KT 4SM SHRA BR OVC015
     FM230700 34005KT 4SM SHRA BR OVC008
     FM231200 33004KT 2SM BR OVC008
     FM231600 33005KT 3SM BR BKN010=

USA.gov is the U.S. government's official web portal to all federal, state and local government web resources and services.